createdAt,value
2016-09-21T00:00:23.476Z,14.77
2016-09-21T00:01:23.495Z,14.78
2016-09-21T00:02:23.511Z,14.79
2016-09-21T00:03:23.534Z,14.82
2016-09-21T00:04:23.551Z,14.78
2016-09-21T00:05:23.576Z,14.77
2016-09-21T00:06:23.597Z,14.77
2016-09-21T00:07:23.618Z,14.79
2016-09-21T00:08:23.642Z,14.79
2016-09-21T00:09:23.664Z,14.77
2016-09-21T00:10:23.680Z,14.78
2016-09-21T00:11:23.697Z,14.78
2016-09-21T00:12:23.716Z,14.81
2016-09-21T00:13:23.737Z,14.79
2016-09-21T00:14:23.755Z,14.79
2016-09-21T00:15:23.777Z,14.78
2016-09-21T00:16:23.798Z,14.79
2016-09-21T00:17:23.819Z,14.78
2016-09-21T00:18:23.837Z,14.73
2016-09-21T00:19:23.859Z,14.72
2016-09-21T00:20:23.877Z,14.73
2016-09-21T00:21:23.899Z,14.78
2016-09-21T00:22:23.919Z,14.78
2016-09-21T00:23:24.439Z,14.73
2016-09-21T00:24:23.961Z,14.77
2016-09-21T00:25:23.983Z,14.79
2016-09-21T00:26:24.002Z,14.79
2016-09-21T00:27:24.129Z,14.77
2016-09-21T00:28:24.127Z,14.79
2016-09-21T00:29:24.487Z,14.84
2016-09-21T00:30:24.176Z,14.79
2016-09-21T00:31:24.195Z,14.77
2016-09-21T00:32:30.390Z,14.78
2016-09-21T00:33:24.369Z,14.79
2016-09-21T00:34:24.376Z,14.78
2016-09-21T00:35:24.595Z,14.78
2016-09-21T00:36:24.289Z,14.68
2016-09-21T00:37:24.432Z,14.78
2016-09-21T00:38:24.440Z,14.79
2016-09-21T00:39:24.446Z,14.79
2016-09-21T00:40:24.767Z,14.78
2016-09-21T00:41:24.614Z,14.78
2016-09-21T00:42:24.472Z,14.79
2016-09-21T00:43:24.480Z,14.78
2016-09-21T00:44:24.490Z,14.7
2016-09-21T00:45:24.802Z,14.79
2016-09-21T00:46:24.497Z,14.78
2016-09-21T00:47:24.469Z,14.78
2016-09-21T00:48:24.477Z,14.78
2016-09-21T00:49:24.476Z,14.77
2016-09-21T00:50:24.487Z,14.73
2016-09-21T00:51:24.505Z,14.77
2016-09-21T00:52:24.524Z,14.79
2016-09-21T00:53:24.544Z,14.79
2016-09-21T00:54:24.561Z,14.78
2016-09-21T00:55:24.903Z,14.77
2016-09-21T00:56:24.607Z,14.79
2016-09-21T00:57:24.633Z,14.77
2016-09-21T00:58:24.644Z,14.77
2016-09-21T00:59:24.666Z,14.78
2016-09-21T01:00:24.684Z,14.78
2016-09-21T01:01:24.712Z,14.73
2016-09-21T01:02:24.731Z,14.73
2016-09-21T01:03:25.064Z,14.77
2016-09-21T01:04:24.762Z,14.78
2016-09-21T01:05:24.788Z,14.73
2016-09-21T01:06:24.808Z,14.73
2016-09-21T01:07:24.824Z,14.7
2016-09-21T01:08:24.847Z,14.78
2016-09-21T01:09:24.864Z,14.73
2016-09-21T01:10:24.886Z,14.73
2016-09-21T01:11:24.906Z,14.81
2016-09-21T01:12:24.927Z,14.77
2016-09-21T01:13:24.953Z,14.7
2016-09-21T01:14:24.964Z,14.79
2016-09-21T01:15:24.994Z,14.77
2016-09-21T01:16:25.006Z,14.81
2016-09-21T01:17:25.027Z,14.78
2016-09-21T01:18:25.047Z,14.79
2016-09-21T01:19:25.065Z,14.79
2016-09-21T01:20:25.088Z,14.73
2016-09-21T01:21:25.108Z,14.82
2016-09-21T01:22:25.126Z,14.79
2016-09-21T01:23:25.147Z,14.78
2016-09-21T01:24:25.163Z,14.77
2016-09-21T01:25:25.185Z,14.69
2016-09-21T01:26:25.534Z,14.77
2016-09-21T01:27:25.225Z,14.82
2016-09-21T01:28:25.246Z,14.79
2016-09-21T01:29:25.271Z,14.79
2016-09-21T01:30:25.602Z,14.78
2016-09-21T01:31:25.307Z,14.77
2016-09-21T01:32:25.326Z,14.79
2016-09-21T01:33:25.668Z,14.79
2016-09-21T01:34:25.369Z,14.73
2016-09-21T01:35:25.389Z,14.82
2016-09-21T01:36:25.415Z,14.79
2016-09-21T01:37:25.429Z,14.73
2016-09-21T01:38:25.449Z,14.78
2016-09-21T01:39:25.468Z,14.79
2016-09-21T01:40:25.490Z,14.73
2016-09-21T01:41:25.509Z,14.79
2016-09-21T01:42:25.528Z,14.77
2016-09-21T01:43:25.547Z,14.77
2016-09-21T01:44:25.569Z,14.79
2016-09-21T01:45:25.587Z,14.79
2016-09-21T01:46:25.610Z,14.81
2016-09-21T01:47:25.632Z,14.77
2016-09-21T01:48:25.650Z,14.73
2016-09-21T01:49:25.680Z,14.73
2016-09-21T01:50:25.687Z,14.72
2016-09-21T01:51:25.709Z,14.81
2016-09-21T01:52:25.732Z,14.77
2016-09-21T01:53:25.760Z,14.73
2016-09-21T01:54:25.768Z,14.77
2016-09-21T01:55:25.787Z,14.77
2016-09-21T01:56:25.810Z,14.79
2016-09-21T01:57:25.834Z,14.78
2016-09-21T01:58:25.846Z,14.73
2016-09-21T01:59:26.179Z,14.79
2016-09-21T02:00:25.885Z,14.79
2016-09-21T02:01:25.910Z,14.78
2016-09-21T02:02:25.930Z,14.79
2016-09-21T02:03:25.962Z,14.69
2016-09-21T02:04:25.979Z,14.73
2016-09-21T02:05:25.990Z,14.78
2016-09-21T02:06:26.007Z,14.73
2016-09-21T02:07:26.149Z,14.73
2016-09-21T02:08:26.162Z,14.72
2016-09-21T02:09:26.183Z,14.78
2016-09-21T02:10:26.179Z,14.81
2016-09-21T02:11:26.199Z,14.73
2016-09-21T02:12:26.217Z,14.78
2016-09-21T02:13:26.377Z,14.78
2016-09-21T02:14:26.389Z,14.79
2016-09-21T02:15:26.390Z,14.78
2016-09-21T02:16:26.301Z,14.79
2016-09-21T02:17:26.448Z,14.77
2016-09-21T02:18:26.459Z,14.78
2016-09-21T02:19:26.454Z,14.82
2016-09-21T02:20:26.469Z,14.82
2016-09-21T02:21:26.476Z,14.78
2016-09-21T02:22:26.486Z,14.79
2016-09-21T02:23:26.498Z,14.77
2016-09-21T02:24:26.494Z,14.78
2016-09-21T02:25:26.501Z,14.73
2016-09-21T02:26:26.510Z,14.79
2016-09-21T02:27:26.832Z,14.77
2016-09-21T02:28:26.531Z,14.79
2016-09-21T02:29:26.487Z,14.77
2016-09-21T02:30:26.494Z,14.79
2016-09-21T02:31:26.824Z,14.73
2016-09-21T02:32:26.531Z,14.72
2016-09-21T02:33:26.560Z,14.77
2016-09-21T02:34:26.568Z,14.77
2016-09-21T02:35:26.591Z,14.73
2016-09-21T02:36:26.607Z,14.78
2016-09-21T02:37:26.785Z,14.79
2016-09-21T02:38:26.649Z,14.78
2016-09-21T02:39:26.668Z,14.79
2016-09-21T02:40:26.683Z,14.77
2016-09-21T02:41:26.713Z,14.7
2016-09-21T02:42:26.727Z,14.77
2016-09-21T02:43:27.066Z,14.73
2016-09-21T02:44:26.775Z,14.72
2016-09-21T02:45:26.787Z,14.78
2016-09-21T02:46:26.805Z,14.79
2016-09-21T02:47:26.830Z,14.77
2016-09-21T02:48:26.846Z,14.79
2016-09-21T02:49:26.868Z,14.79
2016-09-21T02:50:26.887Z,14.73
2016-09-21T02:51:26.914Z,14.77
2016-09-21T02:52:26.928Z,14.78
2016-09-21T02:53:26.947Z,14.7
2016-09-21T02:54:27.019Z,14.73
2016-09-21T02:55:27.302Z,14.79
2016-09-21T02:56:27.012Z,14.78
2016-09-21T02:57:27.347Z,14.73
2016-09-21T02:58:27.051Z,14.77
2016-09-21T02:59:27.068Z,14.73
2016-09-21T03:00:27.089Z,14.7
2016-09-21T03:01:27.108Z,14.78
2016-09-21T03:02:27.129Z,14.81
2016-09-21T03:03:27.143Z,14.79
2016-09-21T03:04:27.169Z,14.73
2016-09-21T03:05:27.189Z,14.73
2016-09-21T03:06:27.208Z,14.73
2016-09-21T03:07:27.228Z,14.73
2016-09-21T03:08:27.253Z,14.82
2016-09-21T03:09:27.271Z,14.79
2016-09-21T03:10:27.291Z,14.69
2016-09-21T03:11:27.309Z,14.73
2016-09-21T03:12:27.329Z,14.79
2016-09-21T03:13:27.348Z,14.7
2016-09-21T03:14:27.368Z,14.79
2016-09-21T03:15:27.391Z,14.78
2016-09-21T03:16:27.420Z,14.81
2016-09-21T03:17:27.431Z,14.77
2016-09-21T03:18:27.450Z,14.77
2016-09-21T03:19:27.513Z,14.79
2016-09-21T03:20:27.490Z,14.7
2016-09-21T03:21:27.510Z,14.78
2016-09-21T03:22:27.531Z,14.79
2016-09-21T03:23:27.550Z,14.77
2016-09-21T03:24:27.576Z,14.79
2016-09-21T03:25:27.589Z,14.7
2016-09-21T03:26:27.616Z,14.73
2016-09-21T03:27:27.645Z,14.72
2016-09-21T03:28:27.649Z,14.85
2016-09-21T03:29:27.673Z,14.73
2016-09-21T03:30:27.710Z,14.79
2016-09-21T03:31:27.716Z,14.78
2016-09-21T03:32:27.729Z,14.78
2016-09-21T03:33:27.756Z,14.79
2016-09-21T03:34:27.773Z,14.78
2016-09-21T03:35:27.791Z,14.82
2016-09-21T03:36:27.811Z,14.72
2016-09-21T03:37:27.875Z,14.79
2016-09-21T03:38:27.872Z,14.79
2016-09-21T03:39:28.180Z,14.73
2016-09-21T03:40:27.893Z,14.78
2016-09-21T03:41:27.913Z,14.72
2016-09-21T03:42:27.931Z,14.7
2016-09-21T03:43:27.951Z,14.79
2016-09-21T03:44:27.970Z,14.73
2016-09-21T03:45:27.990Z,14.7
2016-09-21T03:46:28.010Z,14.77
2016-09-21T03:47:28.032Z,14.79
2016-09-21T03:48:28.053Z,14.73
2016-09-21T03:49:28.077Z,14.77
2016-09-21T03:50:28.089Z,14.79
2016-09-21T03:51:28.178Z,14.77
2016-09-21T03:52:28.129Z,14.7
2016-09-21T03:53:28.149Z,14.79
2016-09-21T03:54:28.220Z,14.78
2016-09-21T03:55:28.192Z,14.72
2016-09-21T03:56:28.214Z,14.81
2016-09-21T03:57:28.230Z,14.73
2016-09-21T03:58:28.250Z,14.79
2016-09-21T03:59:28.276Z,14.77
2016-09-21T04:00:28.289Z,14.73
2016-09-21T04:01:28.308Z,14.77
2016-09-21T04:02:28.327Z,14.77
2016-09-21T04:03:28.356Z,14.78
2016-09-21T04:04:28.371Z,14.69
2016-09-21T04:05:28.391Z,14.73
2016-09-21T04:06:28.411Z,14.82
2016-09-21T04:07:28.431Z,14.78
2016-09-21T04:08:29.185Z,14.86
2016-09-21T04:09:28.471Z,14.77
2016-09-21T04:10:28.492Z,14.73
2016-09-21T04:11:28.511Z,14.84
2016-09-21T04:12:28.529Z,14.72
2016-09-21T04:13:28.552Z,14.79
2016-09-21T04:14:28.568Z,14.73
2016-09-21T04:15:28.589Z,14.78
2016-09-21T04:16:28.612Z,14.78
2016-09-21T04:17:28.637Z,14.81
2016-09-21T04:18:28.652Z,14.77
2016-09-21T04:19:28.671Z,14.78
2016-09-21T04:20:28.689Z,14.79
2016-09-21T04:21:28.714Z,14.7
2016-09-21T04:22:28.732Z,14.7
2016-09-21T04:23:28.747Z,14.82
2016-09-21T04:24:28.771Z,14.73
2016-09-21T04:25:28.790Z,14.73
2016-09-21T04:26:28.807Z,14.73
2016-09-21T04:27:28.830Z,14.79
2016-09-21T04:28:28.850Z,14.82
2016-09-21T04:29:28.873Z,14.73
2016-09-21T04:30:28.888Z,14.77
2016-09-21T04:31:29.221Z,14.84
2016-09-21T04:32:28.931Z,14.78
2016-09-21T04:33:28.947Z,14.77
2016-09-21T04:34:28.969Z,14.77
2016-09-21T04:35:28.989Z,14.81
2016-09-21T04:36:29.014Z,14.73
2016-09-21T04:37:29.030Z,14.79
2016-09-21T04:38:29.124Z,14.82
2016-09-21T04:39:29.072Z,14.79
2016-09-21T04:40:29.088Z,14.73
2016-09-21T04:41:29.114Z,14.79
2016-09-21T04:42:29.132Z,14.81
2016-09-21T04:43:29.156Z,14.77
2016-09-21T04:44:29.170Z,14.73
2016-09-21T04:45:29.192Z,14.79
2016-09-21T04:46:29.210Z,14.73
2016-09-21T04:47:29.232Z,14.81
2016-09-21T04:48:29.248Z,14.81
2016-09-21T04:49:29.270Z,14.81
2016-09-21T04:50:29.287Z,14.77
2016-09-21T04:51:29.315Z,14.72
2016-09-21T04:52:29.640Z,14.84
2016-09-21T04:53:29.353Z,14.78
2016-09-21T04:54:29.370Z,14.84
2016-09-21T04:55:29.397Z,14.79
2016-09-21T04:56:29.408Z,14.79
2016-09-21T04:57:29.430Z,14.73
2016-09-21T04:58:29.452Z,14.78
2016-09-21T04:59:29.467Z,14.78
2016-09-21T05:00:29.493Z,14.78
2016-09-21T05:01:29.513Z,14.82
2016-09-21T05:02:29.529Z,14.78
2016-09-21T05:03:29.550Z,14.78
2016-09-21T05:04:29.706Z,14.79
2016-09-21T05:05:29.593Z,14.79
2016-09-21T05:06:29.613Z,14.82
2016-09-21T05:07:29.730Z,14.81
2016-09-21T05:08:29.653Z,14.82
2016-09-21T05:09:29.671Z,14.78
2016-09-21T05:10:29.692Z,14.79
2016-09-21T05:11:29.716Z,14.84
2016-09-21T05:12:29.728Z,14.73
2016-09-21T05:13:29.751Z,14.78
2016-09-21T05:14:29.828Z,14.78
2016-09-21T05:15:29.794Z,14.77
2016-09-21T05:16:29.807Z,14.85
2016-09-21T05:17:29.828Z,14.79
2016-09-21T05:18:29.852Z,14.84
2016-09-21T05:19:30.184Z,14.82
2016-09-21T05:20:29.895Z,14.78
2016-09-21T05:21:29.920Z,14.81
2016-09-21T05:22:29.933Z,14.82
2016-09-21T05:23:29.949Z,14.78
2016-09-21T05:24:29.972Z,14.72
2016-09-21T05:25:29.989Z,14.84
2016-09-21T05:26:30.010Z,14.84
2016-09-21T05:27:30.032Z,14.94
2016-09-21T05:28:30.046Z,14.85
2016-09-21T05:29:30.071Z,14.85
2016-09-21T05:30:30.095Z,14.89
2016-09-21T05:31:30.117Z,14.94
2016-09-21T05:32:30.129Z,14.92
2016-09-21T05:33:30.149Z,14.92
2016-09-21T05:34:30.175Z,14.94
2016-09-21T05:35:30.197Z,14.99
2016-09-21T05:36:30.212Z,14.88
2016-09-21T05:37:30.231Z,15
2016-09-21T05:38:30.253Z,14.99
2016-09-21T05:39:30.281Z,14.97
2016-09-21T05:40:30.287Z,14.97
2016-09-21T05:41:30.312Z,15.06
2016-09-21T05:42:30.332Z,15.02
2016-09-21T05:43:30.360Z,14.99
2016-09-21T05:44:30.370Z,15.04
2016-09-21T05:45:30.393Z,15.02
2016-09-21T05:46:30.725Z,15.02
2016-09-21T05:47:30.432Z,14.99
2016-09-21T05:48:30.456Z,15.03
2016-09-21T05:49:30.470Z,15.11
2016-09-21T05:50:30.492Z,15.07
2016-09-21T05:51:30.517Z,15.11
2016-09-21T05:52:30.529Z,15.03
2016-09-21T05:53:30.559Z,15.15
2016-09-21T05:54:30.566Z,15.11
2016-09-21T05:55:30.591Z,15.03
2016-09-21T05:56:30.857Z,15.14
2016-09-21T05:57:30.641Z,15.09
2016-09-21T05:58:30.653Z,15.14
2016-09-21T05:59:30.675Z,15.09
2016-09-21T06:00:30.693Z,15.11
2016-09-21T06:01:30.715Z,15.1
2016-09-21T06:02:30.733Z,15.1
2016-09-21T06:03:30.758Z,15.22
2016-09-21T06:04:30.775Z,15.22
2016-09-21T06:05:30.802Z,15.18
2016-09-21T06:06:30.811Z,15.19
2016-09-21T06:07:30.839Z,15.21
2016-09-21T06:08:30.851Z,15.17
2016-09-21T06:09:30.876Z,15.21
2016-09-21T06:10:30.897Z,15.27
2016-09-21T06:11:30.916Z,15.29
2016-09-21T06:12:30.932Z,15.17
2016-09-21T06:13:30.952Z,15.28
2016-09-21T06:14:31.288Z,15.27
2016-09-21T06:15:30.994Z,15.25
2016-09-21T06:16:31.014Z,15.25
2016-09-21T06:17:31.033Z,15.33
2016-09-21T06:18:31.061Z,15.27
2016-09-21T06:19:31.076Z,15.29
2016-09-21T06:20:31.102Z,15.27
2016-09-21T06:21:31.122Z,15.4
2016-09-21T06:22:31.139Z,15.33
2016-09-21T06:23:31.156Z,15.4
2016-09-21T06:24:31.178Z,15.33
2016-09-21T06:25:31.198Z,15.44
2016-09-21T06:26:31.218Z,15.36
2016-09-21T06:27:31.235Z,15.43
2016-09-21T06:28:31.255Z,15.42
2016-09-21T06:29:31.279Z,15.46
2016-09-21T06:30:31.299Z,15.44
2016-09-21T06:31:31.320Z,15.44
2016-09-21T06:32:31.340Z,15.55
2016-09-21T06:33:31.356Z,15.54
2016-09-21T06:34:31.373Z,15.59
2016-09-21T06:35:31.395Z,15.54
2016-09-21T06:36:31.417Z,15.52
2016-09-21T06:37:31.441Z,15.51
2016-09-21T06:38:31.467Z,15.54
2016-09-21T06:39:31.484Z,15.58
2016-09-21T06:40:31.503Z,15.62
2016-09-21T06:41:31.525Z,15.59
2016-09-21T06:42:31.538Z,15.61
2016-09-21T06:43:31.568Z,15.62
2016-09-21T06:44:31.588Z,15.64
2016-09-21T06:45:31.913Z,15.61
2016-09-21T06:46:31.625Z,15.62
2016-09-21T06:47:31.654Z,15.59
2016-09-21T06:48:31.664Z,15.72
2016-09-21T06:49:31.682Z,15.72
2016-09-21T06:50:31.698Z,15.8
2016-09-21T06:51:31.726Z,15.73
2016-09-21T06:52:31.740Z,15.82
2016-09-21T06:53:31.765Z,15.79
2016-09-21T06:54:31.836Z,15.79
2016-09-21T06:55:31.804Z,15.91
2016-09-21T06:56:31.827Z,15.83
2016-09-21T06:57:31.843Z,15.84
2016-09-21T06:58:31.867Z,15.92
2016-09-21T06:59:31.888Z,16
2016-09-21T07:00:31.907Z,15.91
2016-09-21T07:01:31.928Z,15.97
2016-09-21T07:02:31.953Z,15.91
2016-09-21T07:03:31.981Z,15.97
2016-09-21T07:04:31.988Z,16.01
2016-09-21T07:05:32.019Z,15.97
2016-09-21T07:06:32.030Z,16
2016-09-21T07:07:32.056Z,16.12
2016-09-21T07:08:32.071Z,15.98
2016-09-21T07:09:32.091Z,16.02
2016-09-21T07:10:32.116Z,15.98
2016-09-21T07:11:32.133Z,16.02
2016-09-21T07:12:32.159Z,16.12
2016-09-21T07:13:32.183Z,16.15
2016-09-21T07:14:32.189Z,16.15
2016-09-21T07:15:32.218Z,16.09
2016-09-21T07:16:32.236Z,16.17
2016-09-21T07:17:32.264Z,16.16
2016-09-21T07:18:32.282Z,16.28
2016-09-21T07:19:32.297Z,16.24
2016-09-21T07:20:32.319Z,16.23
2016-09-21T07:21:32.340Z,16.24
2016-09-21T07:22:32.363Z,16.24
2016-09-21T07:23:32.384Z,16.39
2016-09-21T07:24:32.402Z,16.42
2016-09-21T07:25:32.424Z,16.41
2016-09-21T07:26:32.447Z,16.41
2016-09-21T07:27:32.462Z,16.38
2016-09-21T07:28:32.492Z,16.41
2016-09-21T07:29:32.506Z,16.47
2016-09-21T07:30:32.526Z,16.41
2016-09-21T07:31:32.541Z,16.53
2016-09-21T07:32:32.569Z,16.47
2016-09-21T07:33:32.588Z,16.51
2016-09-21T07:34:32.609Z,16.54
2016-09-21T07:35:32.629Z,16.56
2016-09-21T07:36:32.685Z,16.6
2016-09-21T07:37:32.672Z,16.61
2016-09-21T07:38:33.001Z,16.6
2016-09-21T07:39:32.717Z,16.68
2016-09-21T07:40:32.797Z,16.6
2016-09-21T07:41:33.065Z,16.76
2016-09-21T07:42:32.784Z,16.74
2016-09-21T07:43:32.799Z,16.75
2016-09-21T07:44:32.815Z,16.81
2016-09-21T07:45:32.838Z,16.81
2016-09-21T07:46:32.856Z,16.75
2016-09-21T07:47:32.885Z,16.79
2016-09-21T07:48:33.218Z,16.79
2016-09-21T07:49:32.929Z,16.89
2016-09-21T07:50:32.944Z,16.78
2016-09-21T07:51:32.964Z,16.91
2016-09-21T07:52:32.981Z,16.87
2016-09-21T07:53:33.319Z,17.01
2016-09-21T07:54:33.082Z,17.02
2016-09-21T07:55:33.049Z,17.04
2016-09-21T07:56:33.067Z,17.01
2016-09-21T07:57:33.117Z,16.96
2016-09-21T07:58:33.107Z,17.02
2016-09-21T07:59:33.452Z,16.93
2016-09-21T08:00:33.156Z,17.14
2016-09-21T08:01:33.171Z,17.04
2016-09-21T08:02:33.219Z,17.06
2016-09-21T08:03:33.215Z,17.02
2016-09-21T08:04:33.235Z,17.04
2016-09-21T08:05:33.257Z,17.09
2016-09-21T08:06:33.278Z,17.11
2016-09-21T08:07:33.298Z,17.11
2016-09-21T08:08:33.323Z,17.16
2016-09-21T08:09:33.341Z,17.19
2016-09-21T08:10:33.362Z,17.16
2016-09-21T08:11:33.381Z,17.22
2016-09-21T08:12:33.403Z,17.14
2016-09-21T08:13:33.423Z,17.19
2016-09-21T08:14:33.445Z,17.16
2016-09-21T08:15:33.465Z,17.26
2016-09-21T08:16:33.491Z,17.26
2016-09-21T08:17:33.511Z,17.26
2016-09-21T08:18:33.543Z,17.24
2016-09-21T08:19:33.555Z,17.26
2016-09-21T08:20:34.086Z,17.29
2016-09-21T08:21:33.598Z,17.34
2016-09-21T08:22:33.619Z,17.41
2016-09-21T08:23:33.640Z,17.38
2016-09-21T08:24:33.662Z,17.39
2016-09-21T08:25:33.679Z,17.46
2016-09-21T08:26:33.703Z,17.52
2016-09-21T08:27:33.770Z,17.54
2016-09-21T08:28:33.742Z,17.46
2016-09-21T08:29:33.768Z,17.57
2016-09-21T08:30:33.795Z,17.56
2016-09-21T08:31:33.811Z,17.52
2016-09-21T08:32:33.829Z,17.64
2016-09-21T08:33:33.854Z,17.63
2016-09-21T08:34:33.874Z,17.64
2016-09-21T08:35:33.896Z,17.65
2016-09-21T08:36:33.910Z,17.7
2016-09-21T08:37:33.940Z,17.7
2016-09-21T08:38:33.960Z,17.76
2016-09-21T08:39:33.978Z,17.79
2016-09-21T08:40:34.013Z,17.8
2016-09-21T08:41:34.025Z,17.8
2016-09-21T08:42:34.046Z,17.86
2016-09-21T08:43:34.065Z,17.94
2016-09-21T08:44:34.089Z,17.85
2016-09-21T08:45:34.112Z,17.83
2016-09-21T08:46:34.133Z,17.9
2016-09-21T08:47:34.152Z,17.83
2016-09-21T08:48:34.174Z,17.86
2016-09-21T08:49:34.350Z,18.01
2016-09-21T08:50:34.221Z,17.95
2016-09-21T08:51:34.237Z,17.98
2016-09-21T08:52:34.261Z,18.03
2016-09-21T08:53:34.287Z,18.05
2016-09-21T08:54:34.306Z,18.05
2016-09-21T08:55:34.327Z,18.1
2016-09-21T08:56:34.346Z,18.08
2016-09-21T08:57:34.382Z,18.05
2016-09-21T08:58:34.392Z,18.07
2016-09-21T08:59:34.419Z,18.18
2016-09-21T09:00:34.443Z,18.11
2016-09-21T09:01:34.777Z,18.19
2016-09-21T09:02:34.480Z,18.23
2016-09-21T09:03:34.505Z,18.15
2016-09-21T09:04:34.522Z,18.23
2016-09-21T09:05:34.559Z,18.18
2016-09-21T09:06:34.571Z,18.29
2016-09-21T09:07:34.589Z,18.34
2016-09-21T09:08:34.614Z,18.31
2016-09-21T09:09:34.947Z,18.38
2016-09-21T09:10:34.655Z,18.43
2016-09-21T09:11:34.683Z,18.4
2016-09-21T09:12:34.695Z,18.52
2016-09-21T09:13:34.726Z,18.52
2016-09-21T09:14:34.744Z,18.56
2016-09-21T09:15:34.782Z,18.52
2016-09-21T09:16:34.788Z,18.68
2016-09-21T09:17:34.812Z,18.7
2016-09-21T09:18:34.842Z,18.8
2016-09-21T09:19:34.976Z,18.75
2016-09-21T09:20:34.892Z,18.83
2016-09-21T09:21:34.899Z,18.9
2016-09-21T09:22:34.922Z,18.81
2016-09-21T09:23:34.948Z,18.93
2016-09-21T09:24:34.964Z,18.95
2016-09-21T09:25:34.987Z,18.96
2016-09-21T09:26:35.013Z,19.07
2016-09-21T09:27:35.031Z,19.11
2016-09-21T09:28:35.056Z,19.11
2016-09-21T09:29:35.082Z,19.16
2016-09-21T09:30:35.104Z,19.33
2016-09-21T09:31:35.124Z,19.29
2016-09-21T09:32:35.145Z,19.31
2016-09-21T09:33:35.167Z,19.31
2016-09-21T09:34:35.186Z,19.41
2016-09-21T09:35:35.527Z,19.51
2016-09-21T09:36:35.235Z,19.48
2016-09-21T09:37:35.253Z,19.56
2016-09-21T09:38:35.290Z,19.59
2016-09-21T09:39:35.303Z,19.66
2016-09-21T09:40:35.323Z,19.67
2016-09-21T09:41:35.346Z,19.76
2016-09-21T09:42:35.370Z,19.82
2016-09-21T09:43:35.400Z,19.95
2016-09-21T09:44:35.411Z,19.92
2016-09-21T09:45:35.436Z,20.04
2016-09-21T09:46:35.458Z,20.14
2016-09-21T09:47:35.483Z,20.26
2016-09-21T09:48:35.505Z,20.43
2016-09-21T09:49:35.528Z,20.4
2016-09-21T09:50:35.548Z,20.44
2016-09-21T09:51:35.573Z,20.58
2016-09-21T09:52:35.592Z,20.65
2016-09-21T09:53:35.620Z,20.75
2016-09-21T09:54:35.839Z,20.8
2016-09-21T09:55:35.670Z,20.82
2016-09-21T09:56:35.682Z,20.9
2016-09-21T09:57:35.706Z,20.95
2016-09-21T09:58:35.733Z,21
2016-09-21T09:59:35.765Z,20.99
2016-09-21T10:00:35.777Z,21.12
2016-09-21T10:01:35.799Z,21.15
2016-09-21T10:02:35.823Z,21.18
2016-09-21T10:03:35.848Z,21.25
2016-09-21T10:04:35.870Z,21.24
2016-09-21T10:05:35.893Z,21.36
2016-09-21T10:06:35.917Z,21.3
2016-09-21T10:07:35.939Z,21.39
2016-09-21T10:08:35.961Z,21.27
2016-09-21T10:09:36.180Z,21.4
2016-09-21T10:10:36.004Z,21.33
2016-09-21T10:11:36.028Z,21.32
2016-09-21T10:12:36.052Z,21.42
2016-09-21T10:13:36.088Z,21.37
2016-09-21T10:14:36.097Z,21.5
2016-09-21T10:15:36.125Z,21.58
2016-09-21T10:16:36.156Z,21.52
2016-09-21T10:17:36.168Z,21.6
2016-09-21T10:18:36.194Z,21.55
2016-09-21T10:19:36.231Z,21.61
2016-09-21T10:20:36.242Z,21.61
2016-09-21T10:21:36.263Z,21.7
2016-09-21T10:22:36.286Z,21.75
2016-09-21T10:23:36.317Z,21.73
2016-09-21T10:24:36.333Z,21.72
2016-09-21T10:25:36.365Z,21.69
2016-09-21T10:26:36.382Z,21.8
2016-09-21T10:27:36.403Z,21.76
2016-09-21T10:28:36.429Z,21.79
2016-09-21T10:29:36.460Z,21.82
2016-09-21T10:30:36.480Z,21.82
2016-09-21T10:31:36.498Z,21.83
2016-09-21T10:32:36.524Z,21.89
2016-09-21T10:33:36.858Z,21.98
2016-09-21T10:34:36.574Z,21.99
2016-09-21T10:35:36.906Z,22.06
2016-09-21T10:36:36.623Z,22
2016-09-21T10:37:36.647Z,22.17
2016-09-21T10:38:36.671Z,22.14
2016-09-21T10:39:36.692Z,22.15
2016-09-21T10:40:36.722Z,22.15
2016-09-21T10:41:36.743Z,22.25
2016-09-21T10:42:36.786Z,22.22
2016-09-21T10:43:36.788Z,22.2
2016-09-21T10:44:36.813Z,22.2
2016-09-21T10:45:36.838Z,22.23
2016-09-21T10:46:36.857Z,22.23
2016-09-21T10:47:37.307Z,22.28
2016-09-21T10:48:36.911Z,22.28
2016-09-21T10:49:36.935Z,22.3
2016-09-21T10:50:36.956Z,22.39
2016-09-21T10:51:37.100Z,22.35
2016-09-21T10:52:37.007Z,22.38
2016-09-21T10:53:37.032Z,22.44
2016-09-21T10:54:37.053Z,22.48
2016-09-21T10:55:37.494Z,22.48
2016-09-21T10:56:37.113Z,22.47
2016-09-21T10:57:37.125Z,22.55
2016-09-21T10:58:37.153Z,22.53
2016-09-21T10:59:37.178Z,22.57
2016-09-21T11:00:37.293Z,22.57
2016-09-21T11:01:37.303Z,22.68
2016-09-21T11:02:37.311Z,22.68
2016-09-21T11:03:37.309Z,22.7
2016-09-21T11:04:37.318Z,22.68
2016-09-21T11:05:37.331Z,22.7
2016-09-21T11:06:37.465Z,22.78
2016-09-21T11:07:37.481Z,22.83
2016-09-21T11:08:37.455Z,22.83
2016-09-21T11:09:37.514Z,22.84
2016-09-21T11:10:37.521Z,22.81
2016-09-21T11:11:37.532Z,22.85
2016-09-21T11:12:37.539Z,22.88
2016-09-21T11:13:37.578Z,22.99
2016-09-21T11:15:37.596Z,23.18
2016-09-21T11:16:37.615Z,23.2
2016-09-21T11:17:37.624Z,23.18
2016-09-21T11:18:37.646Z,23.21
2016-09-21T11:19:37.676Z,23.32
2016-09-21T11:20:37.699Z,23.46
2016-09-21T11:21:37.725Z,23.43
2016-09-21T11:22:38.060Z,23.51
2016-09-21T11:23:37.774Z,23.62
2016-09-21T11:24:37.797Z,23.68
2016-09-21T11:25:37.825Z,23.66
2016-09-21T11:26:37.847Z,23.74
2016-09-21T11:27:37.881Z,23.76
2016-09-21T11:28:37.895Z,23.87
2016-09-21T11:29:37.928Z,23.81
2016-09-21T11:30:37.948Z,23.91
2016-09-21T11:31:37.975Z,23.88
2016-09-21T11:32:38.011Z,23.87
2016-09-21T11:33:38.023Z,23.84
2016-09-21T11:34:38.049Z,23.93
2016-09-21T11:35:38.087Z,23.93
2016-09-21T11:36:38.109Z,23.87
2016-09-21T11:37:38.126Z,23.88
2016-09-21T11:38:38.154Z,23.92
2016-09-21T11:39:38.187Z,23.88
2016-09-21T11:40:38.205Z,23.84
2016-09-21T11:41:38.227Z,23.81
2016-09-21T11:42:38.260Z,23.91
2016-09-21T11:43:38.282Z,23.87
2016-09-21T11:44:38.309Z,23.91
2016-09-21T11:45:38.347Z,23.93
2016-09-21T11:46:38.355Z,23.83
2016-09-21T11:47:38.385Z,23.88
2016-09-21T11:48:38.413Z,23.74
2016-09-21T11:49:38.435Z,23.8
2016-09-21T11:50:38.458Z,23.76
2016-09-21T11:51:38.490Z,23.69
2016-09-21T11:52:38.504Z,23.76
2016-09-21T11:53:38.536Z,23.76
2016-09-21T11:54:38.561Z,23.78
2016-09-21T11:55:38.591Z,23.69
2016-09-21T11:56:38.617Z,23.8
2016-09-21T11:57:38.640Z,23.68
2016-09-21T11:58:38.663Z,23.77
2016-09-21T11:59:38.687Z,23.69
2016-09-21T12:00:38.715Z,23.65
2016-09-21T12:01:39.067Z,23.69
2016-09-21T12:02:38.766Z,23.71
2016-09-21T12:03:38.794Z,23.74
2016-09-21T12:04:38.815Z,23.69
2016-09-21T12:05:38.844Z,23.71
2016-09-21T12:06:38.869Z,23.69
2016-09-21T12:07:38.893Z,23.74
2016-09-21T12:08:38.918Z,23.71
2016-09-21T12:09:38.948Z,23.69
2016-09-21T12:10:38.985Z,23.65
2016-09-21T12:11:39.010Z,23.69
2016-09-21T12:12:39.020Z,23.66
2016-09-21T12:13:39.053Z,23.65
2016-09-21T12:14:39.073Z,23.68
2016-09-21T12:15:39.104Z,23.61
2016-09-21T12:16:39.127Z,23.63
2016-09-21T12:17:39.161Z,23.62
2016-09-21T12:18:39.300Z,23.66
2016-09-21T12:19:39.290Z,23.63
2016-09-21T12:20:39.317Z,23.62
2016-09-21T12:21:39.480Z,23.65
2016-09-21T12:22:39.486Z,23.66
2016-09-21T12:23:39.493Z,23.68
2016-09-21T12:24:39.815Z,23.65
2016-09-21T12:25:39.440Z,23.69
2016-09-21T12:26:39.614Z,23.66
2016-09-21T12:27:39.499Z,23.61
2016-09-21T12:28:39.517Z,23.62
2016-09-21T12:29:39.578Z,23.63
2016-09-21T12:30:39.576Z,23.59
2016-09-21T12:31:39.899Z,23.68
2016-09-21T12:32:39.632Z,23.65
2016-09-21T12:33:39.642Z,23.73
2016-09-21T12:34:39.806Z,23.69
2016-09-21T12:35:39.816Z,23.69
2016-09-21T12:36:39.689Z,23.66
2016-09-21T12:37:39.692Z,23.68
2016-09-21T12:38:39.698Z,23.73
2016-09-21T12:39:39.764Z,23.69
2016-09-21T12:40:39.747Z,23.69
2016-09-21T12:41:39.768Z,23.81
2016-09-21T12:42:39.804Z,23.73
2016-09-21T12:43:39.854Z,23.76
2016-09-21T12:44:39.849Z,23.8
2016-09-21T12:45:39.903Z,23.71
2016-09-21T12:46:40.206Z,23.68
2016-09-21T12:47:39.931Z,23.68
2016-09-21T12:48:39.957Z,23.73
2016-09-21T12:49:40.031Z,23.69
2016-09-21T12:50:40.005Z,23.74
2016-09-21T12:51:40.027Z,23.76
2016-09-21T12:52:40.052Z,23.77
2016-09-21T12:53:40.080Z,23.77
2016-09-21T12:54:40.107Z,23.78
2016-09-21T12:55:40.130Z,23.76